Time;durP1;ratioP1;P1;durP2;ratioP2;P2;SDS_P1;SDS_P2;PMS_P1;PMS_P2;Temp;Humidity;BMP_temperature;BMP_pressure;BME280_temperature;BME280_humidity;BME280_pressure;Samples;Min_cycle;Max_cycle;Signal;HPM_P1;HPM_P2
2023/06/30 00:01:24;;;;;;;2.45;2.00;;;24.90;61.70;;;;;;7642402;22;80742;-56
2023/06/30 00:04:26;;;;;;;3.42;2.85;;;24.90;61.70;;;;;;7641947;22;80494;-52
2023/06/30 00:37:33;;;;;;;3.78;2.55;;;24.90;61.70;;;;;;7635930;22;81103;-63
2023/06/30 00:40:34;;;;;;;2.58;2.20;;;24.90;61.70;;;;;;7641352;22;80449;-66
2023/06/30 00:43:35;;;;;;;3.45;2.28;;;24.90;61.70;;;;;;7639703;22;80921;-65
2023/06/30 00:46:35;;;;;;;3.85;2.60;;;24.80;61.90;;;;;;7614542;22;86754;-66
2023/06/30 00:49:36;;;;;;;2.67;2.33;;;24.90;61.90;;;;;;7641601;22;80538;-65
2023/06/30 00:52:36;;;;;;;3.67;2.13;;;24.90;61.90;;;;;;7641718;22;80273;-65
2023/06/30 00:55:38;;;;;;;4.57;2.47;;;24.90;61.90;;;;;;7639553;22;80405;-62
2023/06/30 00:58:39;;;;;;;2.45;2.22;;;24.90;61.80;;;;;;7615351;22;83124;-63
2023/06/30 01:01:40;;;;;;;2.70;2.35;;;24.90;61.80;;;;;;7641094;22;80346;-65
2023/06/30 01:04:40;;;;;;;3.50;2.85;;;24.90;61.80;;;;;;7641390;22;81624;-65
2023/06/30 01:07:41;;;;;;;3.70;2.30;;;24.90;61.70;;;;;;7641815;22;81593;-65
2023/06/30 01:10:42;;;;;;;4.70;2.80;;;24.90;61.70;;;;;;7614620;22;81070;-66
2023/06/30 01:13:42;;;;;;;3.70;2.55;;;24.90;61.80;;;;;;7641920;22;80621;-68
2023/06/30 01:16:45;;;;;;;3.13;2.38;;;24.80;61.70;;;;;;7642836;22;82627;-66
2023/06/30 01:19:47;;;;;;;3.40;2.40;;;24.90;61.70;;;;;;7615585;22;83504;-68
2023/06/30 01:22:48;;;;;;;4.82;2.22;;;24.80;61.70;;;;;;7615890;22;81503;-68
2023/06/30 01:25:48;;;;;;;2.85;2.58;;;24.80;61.70;;;;;;7642865;22;80352;-55
2023/06/30 01:28:50;;;;;;;2.72;2.40;;;24.90;61.70;;;;;;7641677;22;80437;-53
2023/06/30 01:31:51;;;;;;;3.33;2.38;;;24.80;61.70;;;;;;7642895;22;80985;-55
2023/06/30 01:34:51;;;;;;;2.25;2.05;;;24.80;61.60;;;;;;7641822;22;81070;-55
2023/06/30 01:37:52;;;;;;;2.47;2.10;;;24.80;61.60;;;;;;7614906;22;81771;-55
2023/06/30 01:40:53;;;;;;;2.75;2.35;;;24.80;61.70;;;;;;7614727;22;83878;-57
2023/06/30 01:43:54;;;;;;;2.78;2.40;;;24.80;61.50;;;;;;7643068;22;80267;-54
2023/06/30 01:46:54;;;;;;;3.00;2.10;;;24.90;61.70;;;;;;7614641;22;80236;-57
2023/06/30 01:49:55;;;;;;;2.78;2.55;;;24.80;61.60;;;;;;7615115;22;83008;-55
2023/06/30 01:52:56;;;;;;;3.08;2.47;;;24.90;61.70;;;;;;7615367;22;83384;-55
2023/06/30 01:55:56;;;;;;;1.90;1.80;;;24.80;61.50;;;;;;7614741;22;81364;-54
2023/06/30 01:58:57;;;;;;;3.53;2.97;;;24.80;61.60;;;;;;7641756;22;81452;-56
2023/06/30 02:01:57;;;;;;;4.80;2.70;;;24.80;61.70;;;;;;7614913;22;81619;-56
2023/06/30 02:04:58;;;;;;;2.92;2.30;;;24.80;61.70;;;;;;7642774;22;80668;-54
2023/06/30 02:11:43;;;;;;;4.10;2.60;;;24.80;61.70;;;;;;7641575;22;80169;-55
2023/06/30 02:14:48;;;;;;;3.43;2.77;;;24.80;61.70;;;;;;7615501;22;83112;-57
2023/06/30 02:17:49;;;;;;;2.80;2.30;;;24.80;61.60;;;;;;7642618;22;80822;-56
2023/06/30 02:20:49;;;;;;;3.95;2.40;;;24.70;61.60;;;;;;7614131;22;80458;-55
2023/06/30 02:23:50;;;;;;;2.53;2.33;;;24.70;61.70;;;;;;7615191;22;81363;-56
2023/06/30 02:26:50;;;;;;;3.05;2.50;;;24.80;61.70;;;;;;7613837;22;83257;-56
2023/06/30 02:29:51;;;;;;;4.65;2.70;;;24.80;61.70;;;;;;7641747;22;80287;-56
2023/06/30 02:32:53;;;;;;;3.90;2.67;;;24.80;61.50;;;;;;7641024;22;80145;-56
2023/06/30 02:35:53;;;;;;;4.63;2.70;;;24.70;61.60;;;;;;7641706;22;80333;-55
2023/06/30 02:38:54;;;;;;;3.90;2.75;;;24.70;61.80;;;;;;7642169;22;80137;-55
2023/06/30 02:41:56;;;;;;;2.88;2.63;;;24.70;61.70;;;;;;7613836;22;82065;-55
2023/06/30 02:44:57;;;;;;;2.88;2.67;;;24.70;61.70;;;;;;7615447;22;82682;-52
2023/06/30 02:47:57;;;;;;;4.63;3.22;;;24.70;61.60;;;;;;7639418;22;80492;-56
2023/06/30 02:50:58;;;;;;;3.13;2.70;;;24.70;61.70;;;;;;7616489;22;82242;-56
2023/06/30 02:53:59;;;;;;;3.38;2.90;;;24.70;61.50;;;;;;7615784;22;83196;-56
2023/06/30 02:57:00;;;;;;;2.50;2.28;;;24.70;61.50;;;;;;7616780;22;83539;-55
2023/06/30 03:00:01;;;;;;;4.30;2.97;;;24.70;61.50;;;;;;7617639;22;83197;-54
2023/06/30 03:03:04;;;;;;;4.97;2.85;;;24.70;61.40;;;;;;7616879;22;83268;-55
2023/06/30 03:06:05;;;;;;;4.00;2.50;;;24.70;61.40;;;;;;7616325;22;82697;-54
2023/06/30 03:09:08;;;;;;;2.95;2.60;;;24.70;61.40;;;;;;7616804;22;83464;-53
2023/06/30 03:12:09;;;;;;;3.20;2.42;;;24.70;61.40;;;;;;7615500;22;82781;-55
2023/06/30 03:15:11;;;;;;;2.97;2.47;;;24.70;61.40;;;;;;7617134;22;83033;-60
2023/06/30 03:18:11;;;;;;;3.38;2.83;;;24.70;61.40;;;;;;7615599;22;83220;-61
2023/06/30 03:21:14;;;;;;;2.72;2.50;;;24.80;61.40;;;;;;7643117;22;80133;-61
2023/06/30 03:24:15;;;;;;;3.85;2.65;;;24.80;61.40;;;;;;7644457;22;81076;-62
2023/06/30 03:27:15;;;;;;;5.32;2.42;;;24.70;61.40;;;;;;7615400;22;83355;-62
2023/06/30 03:30:16;;;;;;;4.78;2.75;;;24.80;61.50;;;;;;7615976;22;83188;-62
2023/06/30 03:33:19;;;;;;;3.30;2.75;;;24.70;61.40;;;;;;7616924;22;83345;-63
2023/06/30 03:36:19;;;;;;;6.40;2.78;;;24.80;61.40;;;;;;7614540;22;82237;-62
2023/06/30 03:39:20;;;;;;;3.53;2.72;;;24.70;61.40;;;;;;7616343;22;81860;-62
2023/06/30 03:42:20;;;;;;;2.70;2.30;;;24.80;61.40;;;;;;7616458;22;87302;-63
2023/06/30 03:45:21;;;;;;;3.70;2.65;;;24.80;61.40;;;;;;7617475;22;83397;-65
2023/06/30 03:48:23;;;;;;;3.22;2.53;;;24.70;61.40;;;;;;7642305;22;80771;-63
2023/06/30 03:51:23;;;;;;;3.38;2.70;;;24.70;61.40;;;;;;7612411;22;83436;-62
2023/06/30 03:54:26;;;;;;;2.60;2.38;;;24.80;61.50;;;;;;7616383;22;81310;-63
2023/06/30 03:57:26;;;;;;;2.75;2.30;;;24.80;61.50;;;;;;7616613;22;83358;-63
2023/06/30 04:00:28;;;;;;;5.43;3.50;;;24.80;61.50;;;;;;7616747;22;83953;-64
2023/06/30 04:03:28;;;;;;;3.53;2.92;;;24.70;61.50;;;;;;7643611;22;80262;-63
2023/06/30 04:06:30;;;;;;;3.75;2.80;;;24.80;61.60;;;;;;7643197;22;80507;-63
2023/06/30 04:09:31;;;;;;;4.93;2.70;;;24.80;61.60;;;;;;7641734;22;80158;-63
2023/06/30 04:12:31;;;;;;;2.97;2.65;;;24.70;61.60;;;;;;7640892;22;80091;-68
2023/06/30 04:15:32;;;;;;;7.00;2.67;;;24.80;61.50;;;;;;7642299;22;80846;-66
2023/06/30 04:18:32;;;;;;;4.53;2.97;;;24.80;61.60;;;;;;7643240;22;80717;-62
2023/06/30 04:21:33;;;;;;;7.18;2.75;;;24.80;61.70;;;;;;7641658;22;81358;-62
2023/06/30 04:24:34;;;;;;;3.88;2.65;;;24.80;61.80;;;;;;7642910;22;79843;-70
2023/06/30 04:27:34;;;;;;;8.02;3.25;;;24.80;61.80;;;;;;7642926;22;80274;-62
2023/06/30 04:30:35;;;;;;;4.47;2.80;;;24.80;61.80;;;;;;7642540;22;80899;-60
2023/06/30 04:33:35;;;;;;;4.55;2.90;;;24.70;61.70;;;;;;7642392;22;80410;-61
2023/06/30 04:36:36;;;;;;;6.32;3.45;;;24.80;61.70;;;;;;7642813;22;80598;-61
2023/06/30 04:39:36;;;;;;;3.25;2.95;;;24.80;61.80;;;;;;7630023;22;81391;-62
2023/06/30 04:42:37;;;;;;;8.15;2.78;;;24.70;61.70;;;;;;7630719;22;80740;-61
2023/06/30 04:45:37;;;;;;;4.25;3.20;;;24.80;61.80;;;;;;7637675;22;80610;-65
2023/06/30 04:48:38;;;;;;;7.60;3.10;;;24.70;61.70;;;;;;7640371;22;80387;-65
2023/06/30 04:51:38;;;;;;;12.05;3.83;;;24.80;61.80;;;;;;7641973;22;81593;-69
2023/06/30 04:54:39;;;;;;;7.45;3.95;;;24.80;62.20;;;;;;7641331;22;80765;-65
2023/06/30 04:57:40;;;;;;;11.73;4.00;;;24.80;62.50;;;;;;7641613;22;80254;-63
2023/06/30 05:00:42;;;;;;;9.98;4.60;;;24.90;62.70;;;;;;7641492;22;80411;-65
2023/06/30 05:03:43;;;;;;;14.52;4.45;;;24.90;62.70;;;;;;7640395;22;80963;-63
2023/06/30 05:06:43;;;;;;;6.10;4.50;;;24.90;63.20;;;;;;7641344;22;80524;-63
2023/06/30 05:09:44;;;;;;;5.65;4.35;;;25.00;64.10;;;;;;7641751;22;79900;-63
2023/06/30 05:12:44;;;;;;;8.65;4.25;;;25.00;63.60;;;;;;7640564;22;80497;-62
2023/06/30 05:15:45;;;;;;;9.60;4.80;;;25.00;63.80;;;;;;7641738;22;81085;-66
2023/06/30 05:18:45;;;;;;;8.07;4.68;;;24.90;63.90;;;;;;7612808;22;83083;-64
2023/06/30 05:21:46;;;;;;;6.90;4.43;;;25.00;64.60;;;;;;7640837;22;80986;-62
2023/06/30 05:24:47;;;;;;;9.35;5.00;;;25.00;64.20;;;;;;7640291;22;80342;-65
2023/06/30 05:27:48;;;;;;;7.32;4.28;;;25.00;64.40;;;;;;7640839;22;80258;-61
2023/06/30 05:30:48;;;;;;;7.32;4.10;;;24.90;64.70;;;;;;7641537;22;82163;-63
2023/06/30 05:33:49;;;;;;;6.80;4.68;;;25.00;65.10;;;;;;7640356;22;80333;-66
2023/06/30 05:36:49;;;;;;;9.30;4.50;;;25.00;64.60;;;;;;7561552;22;82086;-64
2023/06/30 05:39:50;;;;;;;11.25;4.40;;;25.10;64.20;;;;;;7534602;22;82087;-72
2023/06/30 05:42:50;;;;;;;9.40;4.80;;;25.10;64.20;;;;;;7640328;22;81710;-71
2023/06/30 05:45:51;;;;;;;8.23;4.00;;;25.10;64.00;;;;;;7640684;22;80042;-66
2023/06/30 05:48:51;;;;;;;15.75;4.60;;;25.20;63.80;;;;;;7624559;22;81285;-67
2023/06/30 05:51:52;;;;;;;14.60;4.18;;;25.10;63.60;;;;;;7639858;22;80434;-64
2023/06/30 05:54:52;;;;;;;8.07;4.88;;;25.10;63.30;;;;;;7639295;22;80853;-66
2023/06/30 05:57:53;;;;;;;6.25;4.18;;;25.10;63.10;;;;;;7614376;22;83424;-67
2023/06/30 06:00:53;;;;;;;6.43;4.50;;;25.10;62.80;;;;;;7614840;22;81081;-61
2023/06/30 06:03:54;;;;;;;7.82;4.53;;;25.10;62.80;;;;;;7640874;22;81105;-59
2023/06/30 06:06:55;;;;;;;7.72;4.25;;;25.10;62.70;;;;;;7639564;22;80854;-60
2023/06/30 06:09:56;;;;;;;5.65;3.58;;;25.10;62.50;;;;;;7640616;22;80548;-61
2023/06/30 06:12:56;;;;;;;13.27;4.30;;;25.10;62.70;;;;;;7644152;22;80326;-57
2023/06/30 06:15:57;;;;;;;9.52;4.00;;;25.10;62.50;;;;;;7640664;22;81111;-58
2023/06/30 06:18:57;;;;;;;5.07;3.92;;;25.10;62.60;;;;;;7643773;22;80516;-60
2023/06/30 06:21:58;;;;;;;12.38;4.10;;;25.10;62.30;;;;;;7643238;22;80560;-60
2023/06/30 06:24:58;;;;;;;6.18;3.83;;;25.10;62.20;;;;;;7644046;22;80659;-59
2023/06/30 06:27:59;;;;;;;8.23;4.05;;;25.10;62.10;;;;;;7642986;22;81926;-59
2023/06/30 06:30:59;;;;;;;8.95;3.65;;;25.10;61.80;;;;;;7643516;22;80207;-61
2023/06/30 06:34:00;;;;;;;7.30;3.70;;;25.10;61.80;;;;;;7643363;22;80257;-59
2023/06/30 06:37:01;;;;;;;14.75;8.13;;;25.10;62.10;;;;;;7634910;22;80702;-59
2023/06/30 06:40:02;;;;;;;163.25;96.68;;;25.20;62.40;;;;;;7644027;22;80786;-60
2023/06/30 06:43:03;;;;;;;356.02;213.80;;;25.20;62.50;;;;;;7641106;22;82740;-60
2023/06/30 06:46:06;;;;;;;361.40;221.43;;;25.20;63.00;;;;;;7610768;22;85388;-61
2023/06/30 06:49:06;;;;;;;377.25;228.75;;;25.20;62.90;;;;;;7638346;22;85652;-63
2023/06/30 06:52:07;;;;;;;327.08;192.43;;;25.20;62.80;;;;;;7633884;22;85470;-61
2023/06/30 06:55:07;;;;;;;319.75;191.88;;;25.20;62.60;;;;;;7638609;22;85368;-66
2023/06/30 06:58:08;;;;;;;322.98;181.43;;;25.20;62.60;;;;;;7636967;22;85453;-68
2023/06/30 07:01:08;;;;;;;315.25;184.13;;;25.20;62.50;;;;;;7638091;22;85768;-65
2023/06/30 07:04:09;;;;;;;356.95;203.45;;;25.30;62.40;;;;;;7634679;22;85660;-61
2023/06/30 07:07:09;;;;;;;329.63;185.20;;;25.30;62.60;;;;;;7628695;22;85306;-61
2023/06/30 07:10:10;;;;;;;286.25;161.15;;;25.40;62.50;;;;;;7634057;22;85167;-61
2023/06/30 07:13:10;;;;;;;248.02;145.68;;;25.40;62.60;;;;;;7636983;22;85702;-69
2023/06/30 07:16:11;;;;;;;235.32;133.57;;;25.40;62.60;;;;;;7634431;22;85137;-70
2023/06/30 07:19:11;;;;;;;221.52;126.85;;;25.50;62.70;;;;;;7630291;22;87124;-70
2023/06/30 07:22:12;;;;;;;214.73;126.38;;;25.50;62.60;;;;;;7636643;22;85229;-69
2023/06/30 07:25:12;;;;;;;206.88;120.80;;;25.50;62.50;;;;;;7633940;22;85836;-70
2023/06/30 07:28:13;;;;;;;193.05;111.18;;;25.50;62.40;;;;;;7633545;22;86233;-69
2023/06/30 07:31:13;;;;;;;180.45;103.22;;;25.50;62.50;;;;;;7607436;22;88715;-69
2023/06/30 07:34:18;;;;;;;178.07;97.80;;;25.50;62.30;;;;;;7635088;22;85679;-69
2023/06/30 07:37:18;;;;;;;157.15;93.35;;;25.50;62.20;;;;;;7640551;22;85901;-68
2023/06/30 07:40:19;;;;;;;155.77;91.22;;;25.60;62.10;;;;;;7639222;22;82760;-68
2023/06/30 07:43:19;;;;;;;154.95;88.88;;;25.60;62.00;;;;;;7640479;22;83034;-67
2023/06/30 07:46:20;;;;;;;144.23;84.45;;;25.60;61.80;;;;;;7640426;22;83142;-70
2023/06/30 07:49:21;;;;;;;140.27;82.57;;;25.60;61.80;;;;;;7637079;22;83330;-69
2023/06/30 07:52:22;;;;;;;134.85;79.63;;;25.60;61.60;;;;;;7637762;22;83763;-68
2023/06/30 07:55:22;;;;;;;128.88;74.50;;;25.60;61.60;;;;;;7638510;22;83284;-68
2023/06/30 07:58:23;;;;;;;128.45;71.80;;;25.60;61.40;;;;;;7638105;22;83209;-69
2023/06/30 08:01:23;;;;;;;117.93;66.57;;;25.60;61.20;;;;;;7637045;22;83023;-69
2023/06/30 08:04:24;;;;;;;124.63;67.78;;;25.60;61.20;;;;;;7637391;22;83449;-70
2023/06/30 08:07:24;;;;;;;105.28;60.15;;;25.60;61.20;;;;;;7635614;22;83152;-70
2023/06/30 08:10:25;;;;;;;70.13;40.97;;;25.60;61.10;;;;;;7637774;22;83131;-63
2023/06/30 08:13:25;;;;;;;84.05;49.88;;;25.60;59.00;;;;;;7632967;22;84213;-63
2023/06/30 08:16:26;;;;;;;69.00;36.17;;;25.60;60.40;;;;;;7608580;22;83966;-60
2023/06/30 08:19:26;;;;;;;29.55;17.10;;;25.50;58.10;;;;;;7638068;22;82958;-59
2023/06/30 08:22:27;;;;;;;25.58;13.93;;;25.60;56.20;;;;;;7638153;22;84041;-62
2023/06/30 08:25:28;;;;;;;22.90;12.55;;;25.60;55.70;;;;;;7638884;22;82968;-61
2023/06/30 08:28:29;;;;;;;20.35;11.88;;;25.60;55.60;;;;;;7635370;22;83719;-60
2023/06/30 08:31:30;;;;;;;22.00;11.30;;;25.70;56.20;;;;;;7638289;22;83353;-60
2023/06/30 08:34:31;;;;;;;14.18;6.82;;;25.70;55.80;;;;;;7639025;22;83529;-62
2023/06/30 08:37:31;;;;;;;17.33;7.28;;;25.70;55.80;;;;;;7641161;22;83410;-59
2023/06/30 08:40:32;;;;;;;22.75;7.53;;;25.70;55.40;;;;;;7642678;22;80636;-60
2023/06/30 08:43:32;;;;;;;22.05;6.53;;;25.70;55.70;;;;;;7643535;22;81433;-57
2023/06/30 08:46:33;;;;;;;16.38;6.07;;;25.70;56.40;;;;;;7643261;22;80706;-60
2023/06/30 08:49:34;;;;;;;11.25;6.22;;;25.70;56.90;;;;;;7642806;22;80448;-60
2023/06/30 08:52:34;;;;;;;15.80;5.88;;;25.80;57.00;;;;;;7642184;22;80649;-60
2023/06/30 08:55:35;;;;;;;22.65;6.00;;;25.80;57.10;;;;;;7643366;22;81141;-60
2023/06/30 08:58:37;;;;;;;50.95;5.70;;;25.80;56.70;;;;;;7642411;22;80309;-59
2023/06/30 09:01:37;;;;;;;14.43;4.50;;;25.90;56.20;;;;;;7641614;22;81002;-55
2023/06/30 09:04:38;;;;;;;14.18;4.57;;;25.90;56.50;;;;;;7642369;22;80724;-64
2023/06/30 09:07:38;;;;;;;10.68;3.97;;;25.90;55.60;;;;;;7641626;22;80299;-62
2023/06/30 09:10:39;;;;;;;8.98;3.70;;;25.90;55.40;;;;;;7639992;22;80262;-62
2023/06/30 09:13:39;;;;;;;7.40;2.72;;;25.90;53.90;;;;;;7641562;22;80342;-63
2023/06/30 09:16:40;;;;;;;9.25;3.28;;;25.90;52.50;;;;;;7642253;22;80609;-67
2023/06/30 09:19:40;;;;;;;5.50;2.53;;;26.00;52.70;;;;;;7642987;22;80863;-66
2023/06/30 09:22:41;;;;;;;11.57;2.67;;;26.10;52.80;;;;;;7641097;22;80681;-65
2023/06/30 09:25:42;;;;;;;8.32;2.72;;;26.10;52.90;;;;;;7641529;22;80438;-65
2023/06/30 09:28:45;;;;;;;4.43;2.50;;;26.10;52.90;;;;;;7640793;22;80611;-65
2023/06/30 09:31:46;;;;;;;4.75;2.80;;;26.20;52.00;;;;;;7643327;22;80542;-62
2023/06/30 09:34:46;;;;;;;5.05;2.25;;;26.20;50.80;;;;;;7643356;22;80515;-66
2023/06/30 09:37:47;;;;;;;3.72;2.03;;;26.20;50.60;;;;;;7642371;22;80269;-60
2023/06/30 09:40:47;;;;;;;7.15;2.40;;;26.30;51.00;;;;;;7645385;22;81222;-61
2023/06/30 09:43:48;;;;;;;2.95;2.33;;;26.30;49.80;;;;;;7644406;22;80311;-62
2023/06/30 09:46:48;;;;;;;8.02;2.40;;;26.30;49.20;;;;;;7643628;22;80358;-61
2023/06/30 09:49:49;;;;;;;6.78;2.30;;;26.30;49.70;;;;;;7644156;22;80084;-63
2023/06/30 09:52:49;;;;;;;6.55;2.88;;;26.30;50.80;;;;;;7639592;22;81575;-62
2023/06/30 09:55:50;;;;;;;5.40;2.72;;;26.20;50.70;;;;;;7643132;22;81328;-57
2023/06/30 09:58:51;;;;;;;2.88;2.00;;;26.20;50.30;;;;;;7641515;22;80964;-58
2023/06/30 10:01:51;;;;;;;9.15;3.03;;;26.30;51.00;;;;;;7641910;22;80226;-58
2023/06/30 10:04:52;;;;;;;2.72;2.40;;;26.30;51.10;;;;;;7641829;22;81070;-58
2023/06/30 10:07:52;;;;;;;3.60;2.00;;;26.30;51.10;;;;;;7641275;22;80917;-58
2023/06/30 10:10:56;;;;;;;7.32;2.53;;;26.30;51.60;;;;;;7641887;22;81327;-58
2023/06/30 10:13:57;;;;;;;8.82;3.53;;;26.30;52.30;;;;;;7643356;22;80531;-58
2023/06/30 10:16:58;;;;;;;13.55;3.97;;;26.40;52.80;;;;;;7643499;22;79978;-69
2023/06/30 10:19:58;;;;;;;15.27;4.25;;;26.30;53.70;;;;;;7643195;22;81001;-69
2023/06/30 10:23:00;;;;;;;14.70;4.93;;;26.40;53.70;;;;;;7644161;22;80234;-70
2023/06/30 10:26:01;;;;;;;13.15;4.43;;;26.40;54.60;;;;;;7643050;22;82254;-67
2023/06/30 10:29:01;;;;;;;14.35;4.85;;;26.40;55.10;;;;;;7642202;22;81106;-68
2023/06/30 10:32:03;;;;;;;14.45;4.50;;;26.40;54.70;;;;;;7642899;22;81064;-74
2023/06/30 10:35:03;;;;;;;14.77;4.88;;;26.40;55.40;;;;;;7642271;22;80652;-75
2023/06/30 10:38:04;;;;;;;10.75;4.70;;;26.40;57.40;;;;;;7641396;22;80829;-70
2023/06/30 10:41:04;;;;;;;10.43;4.15;;;26.50;56.40;;;;;;7643189;22;80963;-72
2023/06/30 10:44:06;;;;;;;9.88;3.25;;;26.50;53.60;;;;;;7642144;22;80333;-73
2023/06/30 10:47:06;;;;;;;5.13;3.15;;;26.50;53.20;;;;;;7642489;22;80430;-69
2023/06/30 10:50:07;;;;;;;4.80;2.47;;;26.60;51.50;;;;;;7642708;22;80263;-73
2023/06/30 10:53:07;;;;;;;7.70;2.75;;;26.60;49.90;;;;;;7643137;22;80312;-68
2023/06/30 10:56:08;;;;;;;5.10;2.22;;;26.70;49.90;;;;;;7643120;22;81132;-74
2023/06/30 10:59:08;;;;;;;6.78;2.30;;;26.70;49.20;;;;;;7648302;22;80419;-69
2023/06/30 11:02:09;;;;;;;4.80;2.42;;;26.70;50.10;;;;;;7647976;22;80587;-72
2023/06/30 11:05:09;;;;;;;5.60;2.28;;;26.70;50.20;;;;;;7645665;22;80255;-72
2023/06/30 11:08:11;;;;;;;5.10;3.08;;;26.70;49.90;;;;;;7645827;22;80793;-71
2023/06/30 11:11:12;;;;;;;4.95;2.25;;;26.70;49.30;;;;;;7647008;22;80620;-56
2023/06/30 11:14:12;;;;;;;4.95;2.22;;;26.80;48.80;;;;;;7641671;22;80813;-64
2023/06/30 11:17:15;;;;;;;4.90;2.22;;;26.90;49.70;;;;;;7640999;22;81114;-66
2023/06/30 11:20:15;;;;;;;4.32;2.08;;;26.90;49.60;;;;;;7642820;22;81125;-66
2023/06/30 11:23:15;;;;;;;4.18;2.20;;;27.00;48.50;;;;;;7642805;22;81520;-62
2023/06/30 11:26:16;;;;;;;3.20;2.22;;;27.20;48.00;;;;;;7643753;22;80908;-63
2023/06/30 11:29:17;;;;;;;4.75;2.75;;;27.20;48.40;;;;;;7643503;22;80505;-62
2023/06/30 11:32:17;;;;;;;6.38;2.72;;;27.20;48.70;;;;;;7641156;22;80409;-63
2023/06/30 11:35:18;;;;;;;5.05;2.47;;;27.20;49.50;;;;;;7643811;22;82819;-62
2023/06/30 11:38:19;;;;;;;5.80;3.10;;;27.10;49.60;;;;;;7643129;22;80699;-63
2023/06/30 11:41:20;;;;;;;4.30;2.50;;;27.10;49.40;;;;;;7643098;22;80445;-62
2023/06/30 11:44:20;;;;;;;5.22;2.50;;;27.00;50.00;;;;;;7634406;22;80606;-63
2023/06/30 11:47:21;;;;;;;2.67;2.13;;;27.00;50.50;;;;;;7627050;22;81072;-64
2023/06/30 11:50:21;;;;;;;4.65;2.22;;;26.90;50.40;;;;;;7635506;22;80979;-61
2023/06/30 11:53:22;;;;;;;3.25;2.38;;;26.80;50.70;;;;;;7615312;22;82169;-60
2023/06/30 11:56:22;;;;;;;6.93;2.42;;;26.90;51.20;;;;;;7641567;22;80043;-65
2023/06/30 11:59:24;;;;;;;3.60;2.40;;;26.90;51.00;;;;;;7639580;22;80864;-65
2023/06/30 12:02:25;;;;;;;3.83;2.95;;;26.80;51.40;;;;;;7641302;22;80435;-66
2023/06/30 12:05:25;;;;;;;5.22;3.00;;;26.80;51.00;;;;;;7639981;22;81504;-66
2023/06/30 12:08:26;;;;;;;5.15;2.47;;;26.80;51.20;;;;;;7640862;22;80305;-57
2023/06/30 12:11:26;;;;;;;8.23;2.70;;;26.80;50.80;;;;;;7641822;22;80556;-57
2023/06/30 12:14:28;;;;;;;3.28;2.72;;;26.80;51.00;;;;;;7640408;22;80548;-58
2023/06/30 12:17:28;;;;;;;2.78;2.15;;;26.80;50.80;;;;;;7640921;22;80946;-57
2023/06/30 12:20:29;;;;;;;8.30;3.00;;;26.80;50.80;;;;;;7641867;22;80995;-58
2023/06/30 12:23:29;;;;;;;7.35;2.90;;;26.80;50.60;;;;;;7643143;22;80933;-60
2023/06/30 12:26:30;;;;;;;5.28;2.70;;;26.80;50.40;;;;;;7640473;22;80676;-59
2023/06/30 12:29:31;;;;;;;2.75;2.30;;;26.80;50.70;;;;;;7643077;22;81328;-59
2023/06/30 12:32:31;;;;;;;6.95;2.33;;;26.80;50.90;;;;;;7639611;22;80242;-59
2023/06/30 12:35:32;;;;;;;5.00;2.65;;;26.90;50.60;;;;;;7641457;22;80592;-58
2023/06/30 12:38:32;;;;;;;10.80;2.45;;;26.80;51.00;;;;;;7641161;22;80872;-59
2023/06/30 12:41:33;;;;;;;6.38;2.58;;;26.80;50.70;;;;;;7641661;22;81443;-58
2023/06/30 12:44:33;;;;;;;3.38;2.20;;;26.90;50.90;;;;;;7641835;22;80755;-68
2023/06/30 12:47:34;;;;;;;4.70;2.33;;;26.90;50.60;;;;;;7640062;22;81028;-68
2023/06/30 12:50:35;;;;;;;5.18;2.65;;;26.90;50.90;;;;;;7640447;22;80374;-68
2023/06/30 12:53:36;;;;;;;5.20;2.42;;;27.00;50.70;;;;;;7640458;22;87252;-76
2023/06/30 12:56:38;;;;;;;4.13;2.30;;;27.00;50.20;;;;;;7643281;22;80543;-73
2023/06/30 12:59:39;;;;;;;4.20;2.10;;;27.00;50.10;;;;;;7644043;22;80782;-73
2023/06/30 13:02:39;;;;;;;3.10;2.15;;;27.00;50.90;;;;;;7643073;22;80718;-69
2023/06/30 13:05:40;;;;;;;7.20;2.72;;;27.00;50.60;;;;;;7642504;22;80786;-70
2023/06/30 13:08:40;;;;;;;8.57;2.65;;;27.00;50.80;;;;;;7642812;22;80585;-68
2023/06/30 13:11:41;;;;;;;3.47;2.42;;;27.00;51.00;;;;;;7642882;22;80001;-70
2023/06/30 13:14:42;;;;;;;7.15;3.13;;;27.10;51.20;;;;;;7641933;22;80761;-67
2023/06/30 13:17:42;;;;;;;9.77;3.17;;;27.10;51.10;;;;;;7643013;22;80743;-69
2023/06/30 13:20:43;;;;;;;6.00;2.35;;;27.10;51.60;;;;;;7642201;22;80940;-54
2023/06/30 13:23:43;;;;;;;6.00;2.42;;;27.10;51.60;;;;;;7642450;22;81281;-53
2023/06/30 13:26:45;;;;;;;4.97;2.63;;;27.10;51.30;;;;;;7641149;22;80228;-54
2023/06/30 13:29:45;;;;;;;3.30;2.50;;;27.10;50.80;;;;;;7641109;22;80477;-54
2023/06/30 13:32:46;;;;;;;6.15;2.70;;;27.20;50.90;;;;;;7641622;22;80168;-56
2023/06/30 13:35:46;;;;;;;4.28;2.60;;;27.20;50.30;;;;;;7642905;22;80394;-56
2023/06/30 13:38:47;;;;;;;5.13;2.55;;;27.20;50.10;;;;;;7642701;22;80188;-73
2023/06/30 13:41:47;;;;;;;3.90;2.30;;;27.20;50.60;;;;;;7642747;22;80788;-75
2023/06/30 13:44:48;;;;;;;2.97;2.22;;;27.20;50.60;;;;;;7652121;22;80548;-74
2023/06/30 13:47:48;;;;;;;5.70;3.05;;;27.20;49.70;;;;;;7648762;22;81280;-73
2023/06/30 13:50:49;;;;;;;4.35;2.42;;;27.20;50.10;;;;;;7650448;22;80716;-73
2023/06/30 13:53:49;;;;;;;5.28;2.38;;;27.10;50.60;;;;;;7654697;22;80553;-74
2023/06/30 13:56:50;;;;;;;5.03;2.65;;;27.10;50.40;;;;;;7649246;22;80792;-57
2023/06/30 13:59:50;;;;;;;3.92;2.55;;;27.00;50.40;;;;;;7640239;22;80340;-57
2023/06/30 14:02:51;;;;;;;5.63;3.05;;;26.90;50.40;;;;;;7642141;22;80473;-57
2023/06/30 14:05:52;;;;;;;4.18;3.03;;;27.00;50.80;;;;;;7640561;22;80606;-57
2023/06/30 14:08:52;;;;;;;5.38;3.28;;;27.10;51.30;;;;;;7639878;22;80687;-56
2023/06/30 14:11:53;;;;;;;3.38;2.95;;;26.90;50.90;;;;;;7639505;22;81479;-56
2023/06/30 14:14:53;;;;;;;7.00;3.08;;;26.90;51.00;;;;;;7643615;22;81143;-55
2023/06/30 14:17:54;;;;;;;9.52;3.10;;;26.90;51.20;;;;;;7632220;22;81062;-56
2023/06/30 14:20:54;;;;;;;5.63;2.88;;;26.90;50.40;;;;;;7627976;22;82542;-56
2023/06/30 14:23:55;;;;;;;9.40;2.85;;;26.90;50.10;;;;;;7641705;22;80284;-55
2023/06/30 14:26:55;;;;;;;6.05;2.83;;;26.90;50.00;;;;;;7642257;22;80321;-60
2023/06/30 14:29:56;;;;;;;3.92;2.45;;;27.00;50.80;;;;;;7641902;22;80376;-63
2023/06/30 14:32:57;;;;;;;3.33;2.38;;;27.00;50.80;;;;;;7643012;22;80796;-60
2023/06/30 14:35:58;;;;;;;3.67;2.70;;;27.00;50.90;;;;;;7638885;22;81082;-60
2023/06/30 14:38:59;;;;;;;3.60;2.30;;;27.00;51.70;;;;;;7645977;22;81321;-61
2023/06/30 14:41:59;;;;;;;4.05;2.78;;;27.00;52.20;;;;;;7642502;22;80615;-60
2023/06/30 14:45:00;;;;;;;7.55;2.42;;;27.00;51.80;;;;;;7644782;22;80327;-61
2023/06/30 14:48:00;;;;;;;3.30;2.45;;;26.90;51.40;;;;;;7645158;22;80323;-60
2023/06/30 14:51:01;;;;;;;5.63;2.70;;;26.90;50.80;;;;;;7641665;22;81083;-60
2023/06/30 14:54:02;;;;;;;4.05;2.58;;;26.90;50.80;;;;;;7644778;22;82103;-61
2023/06/30 14:57:03;;;;;;;3.10;2.65;;;26.90;51.20;;;;;;7645040;22;80752;-61
2023/06/30 15:00:03;;;;;;;4.65;2.60;;;26.90;51.90;;;;;;7645163;22;80239;-60
2023/06/30 15:03:04;;;;;;;4.50;2.80;;;26.90;51.70;;;;;;7642052;22;80510;-60
2023/06/30 15:06:05;;;;;;;7.38;2.72;;;26.90;51.80;;;;;;7644983;22;80730;-60
2023/06/30 15:09:06;;;;;;;4.35;2.70;;;26.90;51.20;;;;;;7645656;22;81053;-59
2023/06/30 15:12:06;;;;;;;6.60;2.60;;;26.90;51.20;;;;;;7645639;22;79950;-59
2023/06/30 15:15:07;;;;;;;3.15;2.20;;;26.80;51.40;;;;;;7644274;22;80345;-60
2023/06/30 15:18:07;;;;;;;4.60;2.90;;;26.80;51.30;;;;;;7640704;22;81297;-59
2023/06/30 15:21:08;;;;;;;3.88;2.70;;;26.80;51.30;;;;;;7642126;22;80420;-59
2023/06/30 15:24:08;;;;;;;3.63;2.80;;;26.80;51.30;;;;;;7634819;22;79996;-62
2023/06/30 15:27:09;;;;;;;4.32;2.95;;;26.80;51.40;;;;;;7643346;22;80038;-60
2023/06/30 15:30:09;;;;;;;4.10;3.10;;;26.80;51.60;;;;;;7642067;22;80382;-63
2023/06/30 15:33:10;;;;;;;3.97;2.97;;;26.80;52.00;;;;;;7641745;22;80717;-61
2023/06/30 15:36:10;;;;;;;3.83;2.75;;;26.80;52.70;;;;;;7609509;22;81848;-62
2023/06/30 15:39:11;;;;;;;32.65;17.92;;;26.80;52.60;;;;;;7643000;22;81088;-62
2023/06/30 15:42:11;;;;;;;60.13;31.58;;;26.80;52.40;;;;;;7636383;22;83128;-63
2023/06/30 15:45:12;;;;;;;73.53;41.55;;;26.80;52.30;;;;;;7636539;22;83088;-64
2023/06/30 15:48:15;;;;;;;55.60;27.65;;;26.80;52.40;;;;;;7633266;22;83115;-64
2023/06/30 15:51:16;;;;;;;37.67;21.10;;;26.80;52.60;;;;;;7637120;22;83342;-63
2023/06/30 15:54:16;;;;;;;61.22;33.33;;;26.80;52.20;;;;;;7637318;22;84557;-63
2023/06/30 15:57:17;;;;;;;38.00;20.20;;;26.80;52.20;;;;;;7637945;22;82842;-63
2023/06/30 16:00:17;;;;;;;37.63;19.50;;;26.90;52.40;;;;;;7637754;22;83266;-63
2023/06/30 16:03:18;;;;;;;35.00;17.05;;;26.90;52.70;;;;;;7638331;22;83314;-66
2023/06/30 16:06:18;;;;;;;43.90;24.23;;;26.90;52.80;;;;;;7639108;22;83685;-62